sensor_id;sensor_type;location;lat;lon;timestamp;temperature;humidity
4518;DHT22;2271;49.464;11.070;2023-06-04T00:00:37;16.80;90.00
4518;DHT22;2271;49.464;11.070;2023-06-04T00:03:03;16.80;90.10
4518;DHT22;2271;49.464;11.070;2023-06-04T00:05:29;16.80;89.90
4518;DHT22;2271;49.464;11.070;2023-06-04T00:07:54;16.80;90.00
4518;DHT22;2271;49.464;11.070;2023-06-04T00:10:20;16.80;89.90
4518;DHT22;2271;49.464;11.070;2023-06-04T00:12:45;16.70;90.10
4518;DHT22;2271;49.464;11.070;2023-06-04T00:15:13;16.60;90.00
4518;DHT22;2271;49.464;11.070;2023-06-04T00:17:40;16.50;90.10
4518;DHT22;2271;49.464;11.070;2023-06-04T00:20:06;16.50;90.30
4518;DHT22;2271;49.464;11.070;2023-06-04T00:22:31;16.60;90.40
4518;DHT22;2271;49.464;11.070;2023-06-04T00:24:57;16.60;90.40
4518;DHT22;2271;49.464;11.070;2023-06-04T00:27:23;16.50;90.20
4518;DHT22;2271;49.464;11.070;2023-06-04T00:29:48;16.50;90.30
4518;DHT22;2271;49.464;11.070;2023-06-04T00:32:14;16.40;90.30
4518;DHT22;2271;49.464;11.070;2023-06-04T00:34:39;16.40;90.40
4518;DHT22;2271;49.464;11.070;2023-06-04T00:37:05;16.20;90.70
4518;DHT22;2271;49.464;11.070;2023-06-04T00:39:31;16.20;90.70
4518;DHT22;2271;49.464;11.070;2023-06-04T00:41:57;16.20;91.00
4518;DHT22;2271;49.464;11.070;2023-06-04T00:44:23;16.20;91.30
4518;DHT22;2271;49.464;11.070;2023-06-04T00:46:51;16.30;91.10
4518;DHT22;2271;49.464;11.070;2023-06-04T00:49:19;16.30;90.90
4518;DHT22;2271;49.464;11.070;2023-06-04T00:51:45;16.30;90.90
4518;DHT22;2271;49.464;11.070;2023-06-04T00:54:12;16.30;90.70
4518;DHT22;2271;49.464;11.070;2023-06-04T00:56:38;16.20;90.70
4518;DHT22;2271;49.464;11.070;2023-06-04T00:59:08;16.20;91.10
4518;DHT22;2271;49.464;11.070;2023-06-04T01:04:00;16.30;91.00
4518;DHT22;2271;49.464;11.070;2023-06-04T01:06:38;16.40;91.10
4518;DHT22;2271;49.464;11.070;2023-06-04T01:09:05;16.30;91.00
4518;DHT22;2271;49.464;11.070;2023-06-04T01:11:34;16.30;91.00
4518;DHT22;2271;49.464;11.070;2023-06-04T01:14:01;16.20;90.80
4518;DHT22;2271;49.464;11.070;2023-06-04T01:16:30;16.30;91.00
4518;DHT22;2271;49.464;11.070;2023-06-04T01:18:59;16.20;91.00
4518;DHT22;2271;49.464;11.070;2023-06-04T01:21:30;16.10;91.10
4518;DHT22;2271;49.464;11.070;2023-06-04T01:24:01;16.10;91.40
4518;DHT22;2271;49.464;11.070;2023-06-04T01:26:31;16.10;91.30
4518;DHT22;2271;49.464;11.070;2023-06-04T01:28:58;16.10;91.60
4518;DHT22;2271;49.464;11.070;2023-06-04T01:31:25;16.10;91.60
4518;DHT22;2271;49.464;11.070;2023-06-04T01:33:55;16.10;91.40
4518;DHT22;2271;49.464;11.070;2023-06-04T01:36:24;16.10;91.40
4518;DHT22;2271;49.464;11.070;2023-06-04T01:38:50;15.90;91.60
4518;DHT22;2271;49.464;11.070;2023-06-04T01:41:16;16.00;91.70
4518;DHT22;2271;49.464;11.070;2023-06-04T01:43:41;15.90;91.70
4518;DHT22;2271;49.464;11.070;2023-06-04T01:46:07;15.80;91.70
4518;DHT22;2271;49.464;11.070;2023-06-04T01:48:33;15.80;91.80
4518;DHT22;2271;49.464;11.070;2023-06-04T01:50:58;15.70;91.90
4518;DHT22;2271;49.464;11.070;2023-06-04T01:53:24;15.70;92.20
4518;DHT22;2271;49.464;11.070;2023-06-04T01:55:50;15.70;92.10
4518;DHT22;2271;49.464;11.070;2023-06-04T01:58:16;15.80;92.10
4518;DHT22;2271;49.464;11.070;2023-06-04T02:00:49;15.90;92.20
4518;DHT22;2271;49.464;11.070;2023-06-04T02:03:15;15.90;92.10
4518;DHT22;2271;49.464;11.070;2023-06-04T02:05:41;16.00;92.30
4518;DHT22;2271;49.464;11.070;2023-06-04T02:08:10;15.90;93.10
4518;DHT22;2271;49.464;11.070;2023-06-04T02:10:36;16.00;93.50
4518;DHT22;2271;49.464;11.070;2023-06-04T02:13:03;15.90;93.60
4518;DHT22;2271;49.464;11.070;2023-06-04T02:15:31;15.90;93.00
4518;DHT22;2271;49.464;11.070;2023-06-04T02:17:58;15.80;92.80
4518;DHT22;2271;49.464;11.070;2023-06-04T02:20:26;15.80;92.90
4518;DHT22;2271;49.464;11.070;2023-06-04T02:22:53;15.80;92.90
4518;DHT22;2271;49.464;11.070;2023-06-04T02:25:18;15.80;93.10
4518;DHT22;2271;49.464;11.070;2023-06-04T02:27:44;15.80;93.10
4518;DHT22;2271;49.464;11.070;2023-06-04T02:30:10;15.80;93.10
4518;DHT22;2271;49.464;11.070;2023-06-04T02:32:35;15.60;92.80
4518;DHT22;2271;49.464;11.070;2023-06-04T02:35:02;15.50;92.90
4518;DHT22;2271;49.464;11.070;2023-06-04T02:37:28;15.50;93.40
4518;DHT22;2271;49.464;11.070;2023-06-04T02:39:53;15.50;93.40
4518;DHT22;2271;49.464;11.070;2023-06-04T02:42:19;15.60;93.10
4518;DHT22;2271;49.464;11.070;2023-06-04T02:44:45;15.60;93.30
4518;DHT22;2271;49.464;11.070;2023-06-04T02:47:11;15.60;93.20
4518;DHT22;2271;49.464;11.070;2023-06-04T02:49:36;15.40;93.10
4518;DHT22;2271;49.464;11.070;2023-06-04T02:52:02;15.50;93.40
4518;DHT22;2271;49.464;11.070;2023-06-04T02:54:27;15.50;93.30
4518;DHT22;2271;49.464;11.070;2023-06-04T02:56:53;15.60;93.20
4518;DHT22;2271;49.464;11.070;2023-06-04T02:59:19;15.40;92.90
4518;DHT22;2271;49.464;11.070;2023-06-04T03:01:44;15.40;93.20
4518;DHT22;2271;49.464;11.070;2023-06-04T03:04:10;15.40;93.50
4518;DHT22;2271;49.464;11.070;2023-06-04T03:06:40;15.40;93.40
4518;DHT22;2271;49.464;11.070;2023-06-04T03:09:06;15.40;93.80
4518;DHT22;2271;49.464;11.070;2023-06-04T03:11:32;15.30;93.30
4518;DHT22;2271;49.464;11.070;2023-06-04T03:13:58;15.30;93.40
4518;DHT22;2271;49.464;11.070;2023-06-04T03:16:23;15.40;93.50
4518;DHT22;2271;49.464;11.070;2023-06-04T03:18:50;15.30;93.50
4518;DHT22;2271;49.464;11.070;2023-06-04T03:21:15;15.30;93.90
4518;DHT22;2271;49.464;11.070;2023-06-04T03:23:41;15.20;93.80
4518;DHT22;2271;49.464;11.070;2023-06-04T03:26:07;15.10;93.90
4518;DHT22;2271;49.464;11.070;2023-06-04T03:28:33;15.10;93.90
4518;DHT22;2271;49.464;11.070;2023-06-04T03:30:59;14.90;94.20
4518;DHT22;2271;49.464;11.070;2023-06-04T03:33:25;14.90;94.50
4518;DHT22;2271;49.464;11.070;2023-06-04T03:35:51;14.90;94.40
4518;DHT22;2271;49.464;11.070;2023-06-04T03:38:18;15.00;94.10
4518;DHT22;2271;49.464;11.070;2023-06-04T03:40:45;14.80;94.20
4518;DHT22;2271;49.464;11.070;2023-06-04T03:43:11;14.80;94.50
4518;DHT22;2271;49.464;11.070;2023-06-04T03:45:36;14.80;94.50
4518;DHT22;2271;49.464;11.070;2023-06-04T03:48:02;14.60;94.80
4518;DHT22;2271;49.464;11.070;2023-06-04T03:50:28;14.70;94.70
4518;DHT22;2271;49.464;11.070;2023-06-04T03:52:53;14.60;94.80
4518;DHT22;2271;49.464;11.070;2023-06-04T03:55:19;14.60;95.40
4518;DHT22;2271;49.464;11.070;2023-06-04T03:57:45;14.70;95.70
4518;DHT22;2271;49.464;11.070;2023-06-04T04:00:11;14.80;95.70
4518;DHT22;2271;49.464;11.070;2023-06-04T04:02:38;14.90;96.70
4518;DHT22;2271;49.464;11.070;2023-06-04T04:05:04;15.00;97.30
4518;DHT22;2271;49.464;11.070;2023-06-04T04:07:29;15.00;97.90
4518;DHT22;2271;49.464;11.070;2023-06-04T04:09:55;15.00;97.90
4518;DHT22;2271;49.464;11.070;2023-06-04T04:12:21;15.10;98.00
4518;DHT22;2271;49.464;11.070;2023-06-04T04:14:46;14.90;96.10
4518;DHT22;2271;49.464;11.070;2023-06-04T04:17:13;14.80;96.60
4518;DHT22;2271;49.464;11.070;2023-06-04T04:19:39;14.90;96.40
4518;DHT22;2271;49.464;11.070;2023-06-04T04:22:05;14.90;95.90
4518;DHT22;2271;49.464;11.070;2023-06-04T04:24:32;14.90;95.70
4518;DHT22;2271;49.464;11.070;2023-06-04T04:26:59;14.80;96.00
4518;DHT22;2271;49.464;11.070;2023-06-04T04:29:25;14.60;96.10
4518;DHT22;2271;49.464;11.070;2023-06-04T04:31:53;14.70;96.00
4518;DHT22;2271;49.464;11.070;2023-06-04T04:34:22;14.70;96.20
4518;DHT22;2271;49.464;11.070;2023-06-04T04:36:49;14.50;96.60
4518;DHT22;2271;49.464;11.070;2023-06-04T04:39:22;14.70;97.20
4518;DHT22;2271;49.464;11.070;2023-06-04T04:41:48;14.70;96.80
4518;DHT22;2271;49.464;11.070;2023-06-04T04:44:14;14.80;96.80
4518;DHT22;2271;49.464;11.070;2023-06-04T04:46:39;14.90;96.90
4518;DHT22;2271;49.464;11.070;2023-06-04T04:49:05;14.90;96.80
4518;DHT22;2271;49.464;11.070;2023-06-04T04:51:31;14.80;97.00
4518;DHT22;2271;49.464;11.070;2023-06-04T04:53:58;14.90;97.30
4518;DHT22;2271;49.464;11.070;2023-06-04T04:56:25;14.80;97.20
4518;DHT22;2271;49.464;11.070;2023-06-04T04:58:52;14.80;97.30
4518;DHT22;2271;49.464;11.070;2023-06-04T05:01:17;14.70;96.90
4518;DHT22;2271;49.464;11.070;2023-06-04T05:03:43;14.90;97.30
4518;DHT22;2271;49.464;11.070;2023-06-04T05:06:09;14.70;97.10
4518;DHT22;2271;49.464;11.070;2023-06-04T05:08:34;14.70;97.50
4518;DHT22;2271;49.464;11.070;2023-06-04T05:11:00;14.70;97.70
4518;DHT22;2271;49.464;11.070;2023-06-04T05:13:26;14.70;98.00
4518;DHT22;2271;49.464;11.070;2023-06-04T05:15:52;14.80;98.10
4518;DHT22;2271;49.464;11.070;2023-06-04T05:18:18;14.90;98.20
4518;DHT22;2271;49.464;11.070;2023-06-04T05:20:47;15.00;98.30
4518;DHT22;2271;49.464;11.070;2023-06-04T05:23:13;15.10;98.20
4518;DHT22;2271;49.464;11.070;2023-06-04T05:25:39;15.20;98.30
4518;DHT22;2271;49.464;11.070;2023-06-04T05:28:06;15.20;98.60
4518;DHT22;2271;49.464;11.070;2023-06-04T05:30:32;15.40;98.50
4518;DHT22;2271;49.464;11.070;2023-06-04T05:32:59;15.40;98.10
4518;DHT22;2271;49.464;11.070;2023-06-04T05:35:25;15.50;98.10
4518;DHT22;2271;49.464;11.070;2023-06-04T05:37:50;15.60;98.20
4518;DHT22;2271;49.464;11.070;2023-06-04T05:40:20;15.70;98.70
4518;DHT22;2271;49.464;11.070;2023-06-04T05:42:47;16.00;98.00
4518;DHT22;2271;49.464;11.070;2023-06-04T05:45:13;15.90;97.60
4518;DHT22;2271;49.464;11.070;2023-06-04T05:47:38;16.20;97.90
4518;DHT22;2271;49.464;11.070;2023-06-04T05:50:04;16.40;97.50
4518;DHT22;2271;49.464;11.070;2023-06-04T05:52:32;16.70;97.40
4518;DHT22;2271;49.464;11.070;2023-06-04T05:54:58;17.00;97.10
4518;DHT22;2271;49.464;11.070;2023-06-04T05:57:24;17.10;96.80
4518;DHT22;2271;49.464;11.070;2023-06-04T05:59:49;17.00;96.80
4518;DHT22;2271;49.464;11.070;2023-06-04T06:02:15;17.10;96.90
4518;DHT22;2271;49.464;11.070;2023-06-04T06:04:41;17.30;97.00
4518;DHT22;2271;49.464;11.070;2023-06-04T06:07:07;17.40;96.20
4518;DHT22;2271;49.464;11.070;2023-06-04T06:09:33;17.50;96.20
4518;DHT22;2271;49.464;11.070;2023-06-04T06:11:58;17.70;96.60
4518;DHT22;2271;49.464;11.070;2023-06-04T06:14:24;17.80;96.00
4518;DHT22;2271;49.464;11.070;2023-06-04T06:16:50;18.10;95.70
4518;DHT22;2271;49.464;11.070;2023-06-04T06:19:15;18.10;96.10
4518;DHT22;2271;49.464;11.070;2023-06-04T06:21:42;18.20;95.40
4518;DHT22;2271;49.464;11.070;2023-06-04T06:24:08;18.30;95.70
4518;DHT22;2271;49.464;11.070;2023-06-04T06:26:33;18.50;95.80
4518;DHT22;2271;49.464;11.070;2023-06-04T06:28:59;18.60;95.20
4518;DHT22;2271;49.464;11.070;2023-06-04T06:31:25;18.80;95.20
4518;DHT22;2271;49.464;11.070;2023-06-04T06:33:51;19.00;95.30
4518;DHT22;2271;49.464;11.070;2023-06-04T06:36:17;19.10;94.40
4518;DHT22;2271;49.464;11.070;2023-06-04T06:38:44;19.20;94.60
4518;DHT22;2271;49.464;11.070;2023-06-04T06:41:13;19.20;94.20
4518;DHT22;2271;49.464;11.070;2023-06-04T06:43:38;18.80;94.70
4518;DHT22;2271;49.464;11.070;2023-06-04T06:46:04;18.80;94.70
4518;DHT22;2271;49.464;11.070;2023-06-04T06:48:29;18.90;95.70
4518;DHT22;2271;49.464;11.070;2023-06-04T06:50:55;19.10;94.80
4518;DHT22;2271;49.464;11.070;2023-06-04T06:53:21;19.30;94.00
4518;DHT22;2271;49.464;11.070;2023-06-04T06:55:47;19.20;94.40
4518;DHT22;2271;49.464;11.070;2023-06-04T06:58:12;19.20;94.40
4518;DHT22;2271;49.464;11.070;2023-06-04T07:00:38;19.20;94.80
4518;DHT22;2271;49.464;11.070;2023-06-04T07:03:04;19.30;94.90
4518;DHT22;2271;49.464;11.070;2023-06-04T07:05:29;19.70;96.70
4518;DHT22;2271;49.464;11.070;2023-06-04T07:07:56;20.00;95.40
4518;DHT22;2271;49.464;11.070;2023-06-04T07:10:23;19.90;94.40
4518;DHT22;2271;49.464;11.070;2023-06-04T07:12:48;19.70;94.00
4518;DHT22;2271;49.464;11.070;2023-06-04T07:15:14;19.80;94.20
4518;DHT22;2271;49.464;11.070;2023-06-04T07:17:40;19.50;94.60
4518;DHT22;2271;49.464;11.070;2023-06-04T07:20:06;19.70;94.60
4518;DHT22;2271;49.464;11.070;2023-06-04T07:22:33;20.10;94.90
4518;DHT22;2271;49.464;11.070;2023-06-04T07:24:59;20.40;94.40
4518;DHT22;2271;49.464;11.070;2023-06-04T07:27:25;20.70;94.90
4518;DHT22;2271;49.464;11.070;2023-06-04T07:29:51;21.00;94.50
4518;DHT22;2271;49.464;11.070;2023-06-04T07:32:17;21.30;94.50
4518;DHT22;2271;49.464;11.070;2023-06-04T07:34:43;21.40;94.20
4518;DHT22;2271;49.464;11.070;2023-06-04T07:37:08;21.30;93.60
4518;DHT22;2271;49.464;11.070;2023-06-04T07:39:35;21.40;93.70
4518;DHT22;2271;49.464;11.070;2023-06-04T07:42:01;21.70;92.90
4518;DHT22;2271;49.464;11.070;2023-06-04T07:44:26;21.20;92.70
4518;DHT22;2271;49.464;11.070;2023-06-04T07:46:52;21.30;93.50
4518;DHT22;2271;49.464;11.070;2023-06-04T07:49:17;21.50;92.90
4518;DHT22;2271;49.464;11.070;2023-06-04T07:51:43;21.20;93.40
4518;DHT22;2271;49.464;11.070;2023-06-04T07:54:09;21.10;93.20
4518;DHT22;2271;49.464;11.070;2023-06-04T07:56:35;21.30;93.90
4518;DHT22;2271;49.464;11.070;2023-06-04T07:59:01;21.30;93.60
4518;DHT22;2271;49.464;11.070;2023-06-04T08:01:27;21.60;93.90
4518;DHT22;2271;49.464;11.070;2023-06-04T08:03:52;21.70;93.50
4518;DHT22;2271;49.464;11.070;2023-06-04T08:06:18;21.70;93.60
4518;DHT22;2271;49.464;11.070;2023-06-04T08:08:44;22.10;93.50
4518;DHT22;2271;49.464;11.070;2023-06-04T08:11:11;22.30;92.60
4518;DHT22;2271;49.464;11.070;2023-06-04T08:13:37;22.30;93.40
4518;DHT22;2271;49.464;11.070;2023-06-04T08:16:03;22.40;92.50
4518;DHT22;2271;49.464;11.070;2023-06-04T08:18:28;22.60;92.70
4518;DHT22;2271;49.464;11.070;2023-06-04T08:20:55;22.70;92.70
4518;DHT22;2271;49.464;11.070;2023-06-04T08:23:20;22.80;92.00
4518;DHT22;2271;49.464;11.070;2023-06-04T08:25:46;22.80;91.70
4518;DHT22;2271;49.464;11.070;2023-06-04T08:28:14;22.80;91.90
4518;DHT22;2271;49.464;11.070;2023-06-04T08:30:41;22.80;91.80
4518;DHT22;2271;49.464;11.070;2023-06-04T08:33:07;22.80;92.00
4518;DHT22;2271;49.464;11.070;2023-06-04T08:35:34;22.70;92.30
4518;DHT22;2271;49.464;11.070;2023-06-04T08:37:59;22.70;92.60
4518;DHT22;2271;49.464;11.070;2023-06-04T08:40:25;22.70;91.90
4518;DHT22;2271;49.464;11.070;2023-06-04T08:42:51;22.60;92.20
4518;DHT22;2271;49.464;11.070;2023-06-04T08:45:23;22.70;91.30
4518;DHT22;2271;49.464;11.070;2023-06-04T08:47:50;22.80;91.40
4518;DHT22;2271;49.464;11.070;2023-06-04T08:50:24;22.80;90.90
4518;DHT22;2271;49.464;11.070;2023-06-04T08:52:54;22.90;90.60
4518;DHT22;2271;49.464;11.070;2023-06-04T08:55:20;22.80;89.70
4518;DHT22;2271;49.464;11.070;2023-06-04T08:57:47;23.00;90.10
4518;DHT22;2271;49.464;11.070;2023-06-04T09:00:15;23.30;90.50
4518;DHT22;2271;49.464;11.070;2023-06-04T09:02:41;23.40;90.00
4518;DHT22;2271;49.464;11.070;2023-06-04T09:05:07;23.70;90.20
4518;DHT22;2271;49.464;11.070;2023-06-04T09:07:39;23.40;88.40
4518;DHT22;2271;49.464;11.070;2023-06-04T09:10:09;23.40;90.00
4518;DHT22;2271;49.464;11.070;2023-06-04T09:12:42;23.30;89.70
4518;DHT22;2271;49.464;11.070;2023-06-04T09:15:10;23.40;88.10
4518;DHT22;2271;49.464;11.070;2023-06-04T09:17:36;22.90;87.80
4518;DHT22;2271;49.464;11.070;2023-06-04T09:20:02;23.10;90.50
4518;DHT22;2271;49.464;11.070;2023-06-04T09:22:32;23.50;90.60
4518;DHT22;2271;49.464;11.070;2023-06-04T09:24:59;23.80;89.10
4518;DHT22;2271;49.464;11.070;2023-06-04T09:27:24;23.70;86.70
4518;DHT22;2271;49.464;11.070;2023-06-04T09:29:55;23.80;87.50
4518;DHT22;2271;49.464;11.070;2023-06-04T09:32:29;24.00;88.40
4518;DHT22;2271;49.464;11.070;2023-06-04T09:35:07;24.10;86.90
4518;DHT22;2271;49.464;11.070;2023-06-04T09:37:34;24.20;85.40
4518;DHT22;2271;49.464;11.070;2023-06-04T09:40:00;24.30;85.40
4518;DHT22;2271;49.464;11.070;2023-06-04T09:42:26;24.40;86.40
4518;DHT22;2271;49.464;11.070;2023-06-04T09:44:52;24.60;85.90
4518;DHT22;2271;49.464;11.070;2023-06-04T09:47:17;24.80;85.00
4518;DHT22;2271;49.464;11.070;2023-06-04T09:49:44;24.90;84.50
4518;DHT22;2271;49.464;11.070;2023-06-04T09:52:10;25.00;83.00
4518;DHT22;2271;49.464;11.070;2023-06-04T09:54:37;24.90;82.40
4518;DHT22;2271;49.464;11.070;2023-06-04T09:57:04;24.80;82.70
4518;DHT22;2271;49.464;11.070;2023-06-04T09:59:33;24.90;83.80
4518;DHT22;2271;49.464;11.070;2023-06-04T10:02:02;24.80;82.70
4518;DHT22;2271;49.464;11.070;2023-06-04T10:04:29;24.50;82.80
4518;DHT22;2271;49.464;11.070;2023-06-04T10:06:55;24.70;83.60
4518;DHT22;2271;49.464;11.070;2023-06-04T10:09:23;25.00;82.50
4518;DHT22;2271;49.464;11.070;2023-06-04T10:11:57;25.30;81.10
4518;DHT22;2271;49.464;11.070;2023-06-04T10:14:35;25.10;79.00
4518;DHT22;2271;49.464;11.070;2023-06-04T10:17:02;25.10;80.00
4518;DHT22;2271;49.464;11.070;2023-06-04T10:19:28;25.10;81.50
4518;DHT22;2271;49.464;11.070;2023-06-04T10:21:56;25.20;78.90
4518;DHT22;2271;49.464;11.070;2023-06-04T10:24:21;25.10;77.20
4518;DHT22;2271;49.464;11.070;2023-06-04T10:26:49;24.80;77.60
4518;DHT22;2271;49.464;11.070;2023-06-04T10:29:18;24.60;77.60
4518;DHT22;2271;49.464;11.070;2023-06-04T10:31:43;24.40;79.20
4518;DHT22;2271;49.464;11.070;2023-06-04T10:34:11;24.80;82.40
4518;DHT22;2271;49.464;11.070;2023-06-04T10:36:45;25.20;80.50
4518;DHT22;2271;49.464;11.070;2023-06-04T10:39:11;25.10;77.60
4518;DHT22;2271;49.464;11.070;2023-06-04T10:41:37;25.00;76.90
4518;DHT22;2271;49.464;11.070;2023-06-04T10:44:03;24.80;77.40
4518;DHT22;2271;49.464;11.070;2023-06-04T10:46:39;25.00;79.20
4518;DHT22;2271;49.464;11.070;2023-06-04T10:49:05;25.30;78.30
4518;DHT22;2271;49.464;11.070;2023-06-04T10:51:33;25.60;77.30
4518;DHT22;2271;49.464;11.070;2023-06-04T10:54:00;25.70;76.70
4518;DHT22;2271;49.464;11.070;2023-06-04T10:56:27;25.80;76.10
4518;DHT22;2271;49.464;11.070;2023-06-04T10:58:52;25.60;75.30
4518;DHT22;2271;49.464;11.070;2023-06-04T11:01:25;25.70;76.00
4518;DHT22;2271;49.464;11.070;2023-06-04T11:03:52;25.60;75.10
4518;DHT22;2271;49.464;11.070;2023-06-04T11:06:18;25.60;72.80
4518;DHT22;2271;49.464;11.070;2023-06-04T11:08:44;25.70;72.80
4518;DHT22;2271;49.464;11.070;2023-06-04T11:11:14;25.60;74.40
4518;DHT22;2271;49.464;11.070;2023-06-04T11:13:41;25.50;75.00
4518;DHT22;2271;49.464;11.070;2023-06-04T11:16:17;25.70;74.70
4518;DHT22;2271;49.464;11.070;2023-06-04T11:18:54;25.90;73.40
4518;DHT22;2271;49.464;11.070;2023-06-04T11:21:20;25.80;73.00
4518;DHT22;2271;49.464;11.070;2023-06-04T11:23:46;25.60;72.00
4518;DHT22;2271;49.464;11.070;2023-06-04T11:26:12;24.40;70.80
4518;DHT22;2271;49.464;11.070;2023-06-04T11:28:39;23.60;72.30
4518;DHT22;2271;49.464;11.070;2023-06-04T11:31:05;23.90;73.70
4518;DHT22;2271;49.464;11.070;2023-06-04T11:33:47;24.30;74.50
4518;DHT22;2271;49.464;11.070;2023-06-04T11:36:26;24.90;75.70
4518;DHT22;2271;49.464;11.070;2023-06-04T11:38:59;25.40;74.30
4518;DHT22;2271;49.464;11.070;2023-06-04T11:41:33;25.40;74.60
4518;DHT22;2271;49.464;11.070;2023-06-04T11:44:03;25.70;75.20
4518;DHT22;2271;49.464;11.070;2023-06-04T11:46:33;25.90;75.40
4518;DHT22;2271;49.464;11.070;2023-06-04T11:48:59;26.20;74.00
4518;DHT22;2271;49.464;11.070;2023-06-04T11:51:26;26.20;73.90
4518;DHT22;2271;49.464;11.070;2023-06-04T11:53:54;26.20;72.90
4518;DHT22;2271;49.464;11.070;2023-06-04T11:56:22;25.90;71.80
4518;DHT22;2271;49.464;11.070;2023-06-04T11:58:49;25.70;73.00
4518;DHT22;2271;49.464;11.070;2023-06-04T12:01:16;25.60;72.60
4518;DHT22;2271;49.464;11.070;2023-06-04T12:03:42;25.70;71.30
4518;DHT22;2271;49.464;11.070;2023-06-04T12:06:18;25.70;70.70
4518;DHT22;2271;49.464;11.070;2023-06-04T12:11:32;25.80;71.30
4518;DHT22;2271;49.464;11.070;2023-06-04T12:14:05;25.70;70.50
4518;DHT22;2271;49.464;11.070;2023-06-04T12:16:33;25.90;71.80
4518;DHT22;2271;49.464;11.070;2023-06-04T12:19:10;26.20;72.70
4518;DHT22;2271;49.464;11.070;2023-06-04T12:21:37;26.20;70.70
4518;DHT22;2271;49.464;11.070;2023-06-04T12:24:09;26.00;69.10
4518;DHT22;2271;49.464;11.070;2023-06-04T12:26:36;26.00;70.30
4518;DHT22;2271;49.464;11.070;2023-06-04T12:29:13;26.00;68.50
4518;DHT22;2271;49.464;11.070;2023-06-04T12:31:41;25.40;68.50
4518;DHT22;2271;49.464;11.070;2023-06-04T12:34:07;25.40;71.80
4518;DHT22;2271;49.464;11.070;2023-06-04T12:36:33;25.70;73.10
4518;DHT22;2271;49.464;11.070;2023-06-04T12:39:04;25.80;71.20
4518;DHT22;2271;49.464;11.070;2023-06-04T12:41:33;25.40;69.70
4518;DHT22;2271;49.464;11.070;2023-06-04T12:44:01;25.40;70.40
4518;DHT22;2271;49.464;11.070;2023-06-04T12:46:27;25.70;71.10
4518;DHT22;2271;49.464;11.070;2023-06-04T12:48:54;25.80;67.90
4518;DHT22;2271;49.464;11.070;2023-06-04T12:51:20;25.60;67.30
4518;DHT22;2271;49.464;11.070;2023-06-04T12:53:46;25.40;68.00
4518;DHT22;2271;49.464;11.070;2023-06-04T12:56:13;25.50;68.60
4518;DHT22;2271;49.464;11.070;2023-06-04T12:58:38;25.70;68.40
4518;DHT22;2271;49.464;11.070;2023-06-04T13:01:04;25.70;65.20
4518;DHT22;2271;49.464;11.070;2023-06-04T13:03:31;25.70;63.60
4518;DHT22;2271;49.464;11.070;2023-06-04T13:05:57;25.60;63.20
4518;DHT22;2271;49.464;11.070;2023-06-04T13:08:23;25.70;64.50
4518;DHT22;2271;49.464;11.070;2023-06-04T13:10:50;25.80;67.00
4518;DHT22;2271;49.464;11.070;2023-06-04T13:13:17;25.80;67.80
4518;DHT22;2271;49.464;11.070;2023-06-04T13:15:46;25.60;67.50
4518;DHT22;2271;49.464;11.070;2023-06-04T13:18:12;25.40;68.20
4518;DHT22;2271;49.464;11.070;2023-06-04T13:20:40;25.50;69.90
4518;DHT22;2271;49.464;11.070;2023-06-04T13:23:06;25.80;69.40
4518;DHT22;2271;49.464;11.070;2023-06-04T13:25:32;26.00;69.40
4518;DHT22;2271;49.464;11.070;2023-06-04T13:27:59;26.00;68.50
4518;DHT22;2271;49.464;11.070;2023-06-04T13:30:25;26.00;69.30
4518;DHT22;2271;49.464;11.070;2023-06-04T13:32:51;25.70;69.50
4518;DHT22;2271;49.464;11.070;2023-06-04T13:35:16;25.70;69.30
4518;DHT22;2271;49.464;11.070;2023-06-04T13:37:42;25.70;69.10
4518;DHT22;2271;49.464;11.070;2023-06-04T13:40:08;25.70;69.80
4518;DHT22;2271;49.464;11.070;2023-06-04T13:42:34;25.80;69.90
4518;DHT22;2271;49.464;11.070;2023-06-04T13:44:59;25.80;69.30
4518;DHT22;2271;49.464;11.070;2023-06-04T13:47:25;25.90;70.20
4518;DHT22;2271;49.464;11.070;2023-06-04T13:49:51;25.90;70.10
4518;DHT22;2271;49.464;11.070;2023-06-04T13:52:17;25.80;68.60
4518;DHT22;2271;49.464;11.070;2023-06-04T13:54:43;25.70;68.50
4518;DHT22;2271;49.464;11.070;2023-06-04T13:57:09;25.40;68.20
4518;DHT22;2271;49.464;11.070;2023-06-04T13:59:40;25.30;68.90
4518;DHT22;2271;49.464;11.070;2023-06-04T14:02:06;25.30;69.20
4518;DHT22;2271;49.464;11.070;2023-06-04T14:04:32;25.50;69.20
4518;DHT22;2271;49.464;11.070;2023-06-04T14:06:58;25.20;67.30
4518;DHT22;2271;49.464;11.070;2023-06-04T14:09:24;25.00;69.90
4518;DHT22;2271;49.464;11.070;2023-06-04T14:11:50;25.10;71.50
4518;DHT22;2271;49.464;11.070;2023-06-04T14:14:20;25.10;70.90
4518;DHT22;2271;49.464;11.070;2023-06-04T14:17:01;25.20;71.40
4518;DHT22;2271;49.464;11.070;2023-06-04T14:19:27;25.20;70.20
4518;DHT22;2271;49.464;11.070;2023-06-04T14:21:53;25.00;70.40
4518;DHT22;2271;49.464;11.070;2023-06-04T14:24:19;24.90;70.20
4518;DHT22;2271;49.464;11.070;2023-06-04T14:26:45;24.90;69.90
4518;DHT22;2271;49.464;11.070;2023-06-04T14:29:11;24.90;69.60
4518;DHT22;2271;49.464;11.070;2023-06-04T14:31:36;24.90;68.70
4518;DHT22;2271;49.464;11.070;2023-06-04T14:34:03;24.80;69.70
4518;DHT22;2271;49.464;11.070;2023-06-04T14:36:32;24.90;70.50
4518;DHT22;2271;49.464;11.070;2023-06-04T14:39:01;24.90;69.40
4518;DHT22;2271;49.464;11.070;2023-06-04T14:41:27;24.90;69.80
4518;DHT22;2271;49.464;11.070;2023-06-04T14:43:52;24.90;69.70
4518;DHT22;2271;49.464;11.070;2023-06-04T14:46:18;24.90;69.70
4518;DHT22;2271;49.464;11.070;2023-06-04T14:48:44;24.90;68.80
4518;DHT22;2271;49.464;11.070;2023-06-04T14:51:10;24.90;69.50
4518;DHT22;2271;49.464;11.070;2023-06-04T14:53:35;24.80;68.60
4518;DHT22;2271;49.464;11.070;2023-06-04T14:56:05;24.80;68.90
4518;DHT22;2271;49.464;11.070;2023-06-04T14:58:31;24.80;68.90
4518;DHT22;2271;49.464;11.070;2023-06-04T15:00:56;24.80;69.40
4518;DHT22;2271;49.464;11.070;2023-06-04T15:03:24;24.80;69.90
4518;DHT22;2271;49.464;11.070;2023-06-04T15:05:50;24.80;68.80
4518;DHT22;2271;49.464;11.070;2023-06-04T15:08:15;24.80;69.40
4518;DHT22;2271;49.464;11.070;2023-06-04T15:10:41;24.80;69.50
4518;DHT22;2271;49.464;11.070;2023-06-04T15:13:09;24.80;67.30
4518;DHT22;2271;49.464;11.070;2023-06-04T15:15:35;24.70;68.00
4518;DHT22;2271;49.464;11.070;2023-06-04T15:18:00;24.70;67.20
4518;DHT22;2271;49.464;11.070;2023-06-04T15:20:26;24.70;66.80
4518;DHT22;2271;49.464;11.070;2023-06-04T15:22:56;24.60;68.20
4518;DHT22;2271;49.464;11.070;2023-06-04T15:25:22;24.50;68.00
4518;DHT22;2271;49.464;11.070;2023-06-04T15:27:50;24.50;67.00
4518;DHT22;2271;49.464;11.070;2023-06-04T15:30:16;24.40;69.00
4518;DHT22;2271;49.464;11.070;2023-06-04T15:32:46;24.40;70.20
4518;DHT22;2271;49.464;11.070;2023-06-04T15:35:12;24.50;70.90
4518;DHT22;2271;49.464;11.070;2023-06-04T15:37:37;24.50;71.20
4518;DHT22;2271;49.464;11.070;2023-06-04T15:40:05;24.60;70.00
4518;DHT22;2271;49.464;11.070;2023-06-04T15:42:36;24.60;70.20
4518;DHT22;2271;49.464;11.070;2023-06-04T15:45:02;24.60;70.20
4518;DHT22;2271;49.464;11.070;2023-06-04T15:47:30;24.60;69.70